createdAt,value
2019-04-29T00:00:40.292Z,3.6053
2019-04-29T00:01:43.283Z,3.6187
2019-04-29T00:02:45.353Z,3.6053
2019-04-29T00:03:48.303Z,3.5920
2019-04-29T00:04:51.312Z,3.6187
2019-04-29T00:05:54.304Z,3.6347
2019-04-29T00:06:57.281Z,3.6347
2019-04-29T00:08:00.353Z,3.6614
2019-04-29T00:09:03.296Z,3.6774
2019-04-29T00:10:06.293Z,3.6480
2019-04-29T00:11:09.283Z,3.6614
2019-04-29T00:12:12.327Z,3.6774
2019-04-29T00:13:15.277Z,3.7041
2019-04-29T00:14:18.280Z,3.7041
2019-04-29T00:15:21.304Z,3.7335
2019-04-29T00:16:24.317Z,3.6480
2019-04-29T00:17:27.273Z,3.6614
2019-04-29T00:18:30.308Z,3.6774
2019-04-29T00:19:36.100Z,3.6614
2019-04-29T00:20:39.266Z,3.7041
2019-04-29T00:21:41.299Z,3.6774
2019-04-29T00:22:44.277Z,3.6908
2019-04-29T00:23:47.294Z,3.6614
2019-04-29T00:24:50.311Z,3.6774
2019-04-29T00:25:53.323Z,3.6480
2019-04-29T00:26:56.293Z,3.7041
2019-04-29T00:27:59.317Z,3.7041
2019-04-29T00:29:02.339Z,3.7602
2019-04-29T00:30:05.323Z,3.7335
2019-04-29T00:31:08.322Z,3.7602
2019-04-29T00:32:11.278Z,3.7602
2019-04-29T00:33:14.291Z,3.7335
2019-04-29T00:34:17.354Z,3.7175
2019-04-29T00:35:20.313Z,3.7469
2019-04-29T00:36:23.277Z,3.7469
2019-04-29T00:37:26.272Z,3.7335
2019-04-29T00:38:29.330Z,3.7335
2019-04-29T00:39:32.335Z,3.7175
2019-04-29T00:40:35.311Z,3.7175
2019-04-29T00:41:38.278Z,3.7175
2019-04-29T00:42:41.278Z,3.6614
2019-04-29T00:43:44.359Z,3.6774
2019-04-29T00:44:47.308Z,3.7175
2019-04-29T00:45:50.300Z,3.7175
2019-04-29T00:46:53.281Z,3.7041
2019-04-29T00:47:56.338Z,3.7041
2019-04-29T00:48:59.283Z,3.7041
2019-04-29T00:50:02.347Z,3.6774
2019-04-29T00:51:05.347Z,3.6908
2019-04-29T00:52:08.309Z,3.6908
2019-04-29T00:53:11.289Z,3.6908
2019-04-29T00:54:14.303Z,3.7041
2019-04-29T00:55:17.345Z,3.6614
2019-04-29T00:56:20.270Z,3.6480
2019-04-29T00:57:23.302Z,3.6480
2019-04-29T00:58:26.263Z,3.6480
2019-04-29T00:59:29.303Z,3.6774
2019-04-29T01:00:32.318Z,3.6187
2019-04-29T01:01:35.319Z,3.6614
2019-04-29T01:02:38.283Z,3.6347
2019-04-29T01:03:41.405Z,3.6347
2019-04-29T01:04:44.309Z,3.6480
2019-04-29T01:05:47.338Z,3.6053
2019-04-29T01:06:50.276Z,3.6053
2019-04-29T01:07:53.325Z,3.5786
2019-04-29T01:08:56.299Z,3.6053
2019-04-29T01:09:58.288Z,3.6347
2019-04-29T01:11:01.361Z,3.6187
2019-04-29T01:12:04.327Z,3.5786
2019-04-29T01:13:07.317Z,3.5920
2019-04-29T01:14:10.309Z,3.6187
2019-04-29T01:15:13.311Z,3.6347
2019-04-29T01:16:16.345Z,3.6614
2019-04-29T01:17:19.284Z,3.6614
2019-04-29T01:18:22.305Z,3.6480
2019-04-29T01:19:25.266Z,3.6480
2019-04-29T01:20:28.278Z,3.6614
2019-04-29T01:21:30.333Z,3.6908
2019-04-29T01:22:33.297Z,3.6614
2019-04-29T01:23:36.301Z,3.6614
2019-04-29T01:24:39.333Z,3.6614
2019-04-29T01:25:42.269Z,3.6908
2019-04-29T01:26:45.304Z,3.6187
2019-04-29T01:27:48.312Z,3.6480
2019-04-29T01:28:51.288Z,3.6347
2019-04-29T01:29:54.295Z,3.7041
2019-04-29T01:30:57.295Z,3.6908
2019-04-29T01:32:00.333Z,3.7041
2019-04-29T01:33:03.310Z,3.7041
2019-04-29T01:34:06.253Z,3.6614
2019-04-29T01:35:09.283Z,3.6614
2019-04-29T01:36:12.338Z,3.7041
2019-04-29T01:37:15.317Z,3.6774
2019-04-29T01:38:18.283Z,3.6614
2019-04-29T01:39:21.298Z,3.7041
2019-04-29T01:40:24.275Z,3.7041
2019-04-29T01:41:27.287Z,3.6908
2019-04-29T01:42:30.306Z,3.6908
2019-04-29T01:43:33.318Z,3.7175
2019-04-29T01:44:36.273Z,3.7175
2019-04-29T01:45:39.305Z,3.6908
2019-04-29T01:46:42.317Z,3.7335
2019-04-29T01:47:45.340Z,3.7335
2019-04-29T01:48:48.305Z,3.7335
2019-04-29T01:49:51.315Z,3.7736
2019-04-29T01:50:54.290Z,3.7469
2019-04-29T01:51:57.302Z,3.7335
2019-04-29T01:53:00.326Z,3.7175
2019-04-29T01:54:03.287Z,3.7335
2019-04-29T01:55:08.327Z,3.7469
2019-04-29T01:56:11.280Z,3.7175
2019-04-29T01:57:13.292Z,3.6908
2019-04-29T01:58:16.347Z,3.7335
2019-04-29T01:59:19.288Z,3.7175
2019-04-29T02:00:22.327Z,3.7175
2019-04-29T02:01:25.314Z,3.6908
2019-04-29T02:02:28.290Z,3.6908
2019-04-29T02:03:31.310Z,3.7041
2019-04-29T02:04:34.345Z,3.6774
2019-04-29T02:05:37.287Z,3.6614
2019-04-29T02:06:40.302Z,3.6480
2019-04-29T02:07:43.290Z,3.6480
2019-04-29T02:08:46.337Z,3.6614
2019-04-29T02:09:49.285Z,3.6614
2019-04-29T02:10:52.282Z,3.6187
2019-04-29T02:11:55.283Z,3.6347
2019-04-29T02:12:58.279Z,3.6614
2019-04-29T02:14:00.343Z,3.6480
2019-04-29T02:15:03.296Z,3.6480
2019-04-29T02:16:06.274Z,3.7041
2019-04-29T02:17:09.298Z,3.7335
2019-04-29T02:18:12.261Z,3.7175
2019-04-29T02:19:15.346Z,3.7469
2019-04-29T02:20:18.270Z,3.7736
2019-04-29T02:21:21.329Z,3.7602
2019-04-29T02:22:24.280Z,3.7469
2019-04-29T02:23:27.325Z,3.7335
2019-04-29T02:24:30.312Z,3.7469
2019-04-29T02:25:33.289Z,3.7175
2019-04-29T02:26:36.278Z,3.7469
2019-04-29T02:27:40.325Z,3.7335
2019-04-29T02:28:43.300Z,3.7335
2019-04-29T02:29:46.302Z,3.7602
2019-04-29T02:30:49.333Z,3.7469
2019-04-29T02:31:52.308Z,3.7335
2019-04-29T02:32:55.303Z,3.7041
2019-04-29T02:33:58.390Z,3.7335
2019-04-29T02:35:01.329Z,3.7469
2019-04-29T02:36:04.320Z,3.7175
2019-04-29T02:37:07.276Z,3.7335
2019-04-29T02:38:10.299Z,3.7335
2019-04-29T02:39:13.296Z,3.7335
2019-04-29T02:40:15.343Z,3.7335
2019-04-29T02:41:18.298Z,3.7335
2019-04-29T02:42:21.286Z,3.7175
2019-04-29T02:43:24.267Z,3.7335
2019-04-29T02:44:27.284Z,3.7469
2019-04-29T02:45:30.347Z,3.7602
2019-04-29T02:46:33.286Z,3.7602
2019-04-29T02:47:36.311Z,3.7736
2019-04-29T02:48:41.283Z,3.8029
2019-04-29T02:49:44.316Z,3.7896
2019-04-29T02:50:47.301Z,3.7736
2019-04-29T02:51:50.331Z,3.7896
2019-04-29T02:52:53.268Z,3.8323
2019-04-29T02:53:56.324Z,3.8029
2019-04-29T02:54:59.264Z,3.8457
2019-04-29T02:56:02.329Z,3.8029
2019-04-29T02:57:05.359Z,3.7896
2019-04-29T02:58:12.270Z,3.8163
2019-04-29T02:59:15.307Z,3.8029
2019-04-29T03:00:17.334Z,3.7896
2019-04-29T03:01:20.336Z,3.8323
2019-04-29T03:02:23.268Z,3.8590
2019-04-29T03:03:26.307Z,3.8457
2019-04-29T03:04:29.275Z,3.8323
2019-04-29T03:05:31.290Z,3.8029
2019-04-29T03:06:34.340Z,3.7896
2019-04-29T03:07:37.281Z,3.7736
2019-04-29T03:08:40.317Z,3.8029
2019-04-29T03:09:43.307Z,3.8323
2019-04-29T03:10:46.303Z,3.8457
2019-04-29T03:11:48.327Z,3.7736
2019-04-29T03:12:51.281Z,3.7469
2019-04-29T03:13:54.280Z,3.7175
2019-04-29T03:14:57.280Z,3.7602
2019-04-29T03:16:00.282Z,3.7335
2019-04-29T03:17:03.283Z,3.7469
2019-04-29T03:18:06.290Z,3.7602
2019-04-29T03:19:09.297Z,3.7469
2019-04-29T03:20:13.368Z,3.7335
2019-04-29T03:21:16.298Z,3.8029
2019-04-29T03:22:19.335Z,3.7469
2019-04-29T03:23:22.294Z,3.7602
2019-04-29T03:24:25.271Z,3.7736
2019-04-29T03:25:28.277Z,3.7896
2019-04-29T03:26:31.277Z,3.7736
2019-04-29T03:27:34.323Z,3.7602
2019-04-29T03:28:37.281Z,3.7896
2019-04-29T03:29:40.308Z,3.7335
2019-04-29T03:30:43.309Z,3.7469
2019-04-29T03:31:46.294Z,3.7335
2019-04-29T03:32:49.346Z,3.7469
2019-04-29T03:33:52.301Z,3.7175
2019-04-29T03:34:55.300Z,3.7469
2019-04-29T03:35:58.305Z,3.7469
2019-04-29T03:37:00.351Z,3.8029
2019-04-29T03:38:03.298Z,3.7736
2019-04-29T03:39:06.311Z,3.7896
2019-04-29T03:40:09.338Z,3.7602
2019-04-29T03:41:12.323Z,3.7602
2019-04-29T03:42:15.288Z,3.7736
2019-04-29T03:43:17.416Z,3.7736
2019-04-29T03:44:20.286Z,3.7896
2019-04-29T03:45:23.274Z,3.8323
2019-04-29T03:46:26.317Z,3.8029
2019-04-29T03:47:29.284Z,3.8323
2019-04-29T03:48:32.307Z,3.7736
2019-04-29T03:49:35.304Z,3.7736
2019-04-29T03:50:38.294Z,3.8029
2019-04-29T03:51:41.334Z,3.7736
2019-04-29T03:52:44.290Z,3.7602
2019-04-29T03:53:47.309Z,3.8029
2019-04-29T03:54:50.303Z,3.7896
2019-04-29T03:55:53.319Z,3.7602
2019-04-29T03:56:56.265Z,3.8029
2019-04-29T03:57:59.310Z,3.7335
2019-04-29T03:59:02.316Z,3.6774
2019-04-29T04:00:06.345Z,3.6774
2019-04-29T04:01:09.288Z,3.7335
2019-04-29T04:02:12.316Z,3.7175
2019-04-29T04:03:15.321Z,3.7602
2019-04-29T04:04:18.306Z,3.7602
2019-04-29T04:05:21.306Z,3.7469
2019-04-29T04:06:24.288Z,3.7602
2019-04-29T04:07:27.344Z,3.7335
2019-04-29T04:08:30.310Z,3.7896
2019-04-29T04:09:33.331Z,3.7602
2019-04-29T04:10:36.289Z,3.7469
2019-04-29T04:11:39.330Z,3.7736
2019-04-29T04:12:42.289Z,3.7469
2019-04-29T04:13:45.301Z,3.7469
2019-04-29T04:14:48.330Z,3.7041
2019-04-29T04:15:51.285Z,3.7335
2019-04-29T04:16:53.284Z,3.7335
2019-04-29T04:17:56.314Z,3.7736
2019-04-29T04:18:59.291Z,3.7896
2019-04-29T04:20:02.350Z,3.8029
2019-04-29T04:21:05.299Z,3.8029
2019-04-29T04:22:08.311Z,3.7736
2019-04-29T04:23:11.271Z,3.8163
2019-04-29T04:24:14.304Z,3.8590
2019-04-29T04:25:17.348Z,3.8590
2019-04-29T04:26:20.318Z,3.8724
2019-04-29T04:27:23.276Z,3.8884
2019-04-29T04:28:26.315Z,3.9151
2019-04-29T04:29:29.324Z,3.9151
2019-04-29T04:30:32.334Z,3.9311
2019-04-29T04:31:35.275Z,3.9311
2019-04-29T04:32:38.273Z,3.9445
2019-04-29T04:33:41.323Z,3.9311
2019-04-29T04:34:44.351Z,3.9017
2019-04-29T04:35:47.303Z,3.9311
2019-04-29T04:36:50.323Z,3.9445
2019-04-29T04:37:52.307Z,3.9578
2019-04-29T04:38:55.281Z,3.9445
2019-04-29T04:39:57.309Z,3.9712
2019-04-29T04:41:00.386Z,4.0005
2019-04-29T04:42:03.287Z,3.9872
2019-04-29T04:43:06.352Z,3.9872
2019-04-29T04:44:09.272Z,3.9578
2019-04-29T04:45:11.309Z,3.9445
2019-04-29T04:46:14.317Z,3.9712
2019-04-29T04:47:17.303Z,3.9578
2019-04-29T04:48:20.272Z,3.9578
2019-04-29T04:49:23.320Z,3.9311
2019-04-29T04:50:26.369Z,3.9151
2019-04-29T04:51:29.303Z,3.9017
2019-04-29T04:52:32.279Z,3.9151
2019-04-29T04:53:35.304Z,3.9017
2019-04-29T04:54:38.337Z,3.8724
2019-04-29T04:55:41.351Z,3.9017
2019-04-29T04:56:44.323Z,3.9445
2019-04-29T04:57:47.287Z,3.9151
2019-04-29T04:58:50.284Z,3.9445
2019-04-29T04:59:53.316Z,3.9712
2019-04-29T05:00:56.285Z,3.9712
2019-04-29T05:01:59.344Z,4.0139
2019-04-29T05:03:02.283Z,4.0005
2019-04-29T05:04:05.296Z,3.9712
2019-04-29T05:05:08.299Z,4.0272
2019-04-29T05:06:11.342Z,4.0272
2019-04-29T05:07:14.302Z,4.0700
2019-04-29T05:08:17.277Z,4.0700
2019-04-29T05:09:20.326Z,4.0860
2019-04-29T05:10:23.272Z,4.0860
2019-04-29T05:11:26.355Z,4.0860
2019-04-29T05:12:29.293Z,4.1421
2019-04-29T05:13:32.304Z,4.1421
2019-04-29T05:14:35.303Z,4.1848
2019-04-29T05:15:38.300Z,4.2248
2019-04-29T05:16:41.297Z,4.2115
2019-04-29T05:17:44.280Z,4.2702
2019-04-29T05:18:47.310Z,4.2702
2019-04-29T05:19:50.262Z,4.2863
2019-04-29T05:20:53.316Z,4.2702
2019-04-29T05:21:55.366Z,4.2863
2019-04-29T05:22:58.313Z,4.2996
2019-04-29T05:24:01.294Z,4.2569
2019-04-29T05:25:04.315Z,4.2569
2019-04-29T05:26:07.298Z,4.2115
2019-04-29T05:27:10.320Z,4.2409
2019-04-29T05:28:13.320Z,4.2409
2019-04-29T05:29:16.286Z,4.2248
2019-04-29T05:30:18.343Z,4.2248
2019-04-29T05:31:21.316Z,4.2248
2019-04-29T05:32:24.375Z,4.2702
2019-04-29T05:33:27.302Z,4.2863
2019-04-29T05:34:30.284Z,4.2863
2019-04-29T05:35:33.310Z,4.3130
2019-04-29T05:36:38.187Z,4.2863
2019-04-29T05:37:42.343Z,4.2863
2019-04-29T05:38:45.285Z,4.3557
2019-04-29T05:39:48.296Z,4.3824
2019-04-29T05:40:51.287Z,4.3984
2019-04-29T05:41:54.311Z,4.4972
2019-04-29T05:42:57.297Z,4.4812
2019-04-29T05:44:00.284Z,4.4812
2019-04-29T05:45:03.284Z,4.5533
2019-04-29T05:46:07.554Z,4.5800
2019-04-29T05:47:11.302Z,4.5960
2019-04-29T05:48:14.328Z,4.6227
2019-04-29T05:49:17.341Z,4.6948
2019-04-29T05:50:20.307Z,4.7082
2019-04-29T05:51:27.178Z,4.7509
2019-04-29T05:52:34.654Z,4.5800
2019-04-29T05:53:39.350Z,4.6654
2019-04-29T05:54:42.278Z,4.6654
2019-04-29T05:55:45.335Z,4.7082
2019-04-29T05:56:50.279Z,4.6521
2019-04-29T05:57:55.883Z,4.7082
2019-04-29T05:59:01.351Z,4.7082
2019-04-29T06:00:04.304Z,4.7215
2019-04-29T06:01:07.367Z,4.7936
2019-04-29T06:02:10.285Z,4.7936
2019-04-29T06:03:13.313Z,4.8898
2019-04-29T06:04:18.194Z,4.9191
2019-04-29T06:05:21.340Z,4.9191
2019-04-29T06:06:24.299Z,5.0340
2019-04-29T06:07:27.321Z,5.0340
2019-04-29T06:08:34.323Z,5.0767
2019-04-29T06:09:38.331Z,5.0340
2019-04-29T06:10:42.102Z,5.1328
2019-04-29T06:11:45.302Z,5.2049
2019-04-29T06:12:48.285Z,5.1755
2019-04-29T06:13:51.281Z,5.2876
2019-04-29T06:14:54.348Z,5.4158
2019-04-29T06:15:57.296Z,5.2743
2019-04-29T06:17:02.837Z,5.3304
2019-04-29T06:18:08.273Z,5.5573
2019-04-29T06:19:11.301Z,5.6828
2019-04-29T06:20:17.954Z,5.6535
2019-04-29T06:21:22.315Z,5.5146
2019-04-29T06:22:25.277Z,5.3597
2019-04-29T06:23:28.307Z,5.3170
2019-04-29T06:24:31.319Z,5.2049
2019-04-29T06:25:34.330Z,5.0500
2019-04-29T06:26:37.331Z,5.0340
2019-04-29T06:27:40.294Z,4.9191
2019-04-29T06:28:42.346Z,4.9058
2019-04-29T06:29:45.325Z,4.9886
2019-04-29T06:30:50.258Z,4.9886
2019-04-29T06:31:55.307Z,5.0340
2019-04-29T06:32:58.378Z,5.0179
2019-04-29T06:34:05.238Z,5.0500
2019-04-29T06:35:10.693Z,5.0179
2019-04-29T06:36:17.316Z,5.1328
2019-04-29T06:37:20.309Z,5.1328
2019-04-29T06:38:23.314Z,5.1755
2019-04-29T06:39:26.293Z,5.2316
2019-04-29T06:40:30.728Z,5.2743
2019-04-29T06:41:40.676Z,5.2316
2019-04-29T06:42:45.326Z,5.2182
2019-04-29T06:43:48.284Z,5.3037
2019-04-29T06:44:51.312Z,5.4158
2019-04-29T06:45:54.346Z,5.3597
2019-04-29T06:46:57.311Z,5.4292
2019-04-29T06:47:59.375Z,5.3304
2019-04-29T06:49:10.024Z,5.2743
2019-04-29T06:50:11.325Z,5.3998
2019-04-29T06:51:14.269Z,5.3037
2019-04-29T06:52:17.290Z,5.4585
2019-04-29T06:53:21.375Z,5.4719
2019-04-29T06:54:26.324Z,5.2743
2019-04-29T06:55:29.331Z,5.3597
2019-04-29T06:56:32.301Z,5.4585
2019-04-29T06:57:35.297Z,5.4719
2019-04-29T06:58:38.547Z,5.4425
2019-04-29T06:59:42.900Z,5.6134
2019-04-29T07:00:51.068Z,5.6268
2019-04-29T07:01:54.317Z,5.7389
2019-04-29T07:02:57.310Z,5.7950
2019-04-29T07:04:02.355Z,5.8404
2019-04-29T07:05:05.291Z,5.9392
2019-04-29T07:06:08.356Z,5.8698
2019-04-29T07:07:11.301Z,5.9392
2019-04-29T07:08:14.269Z,5.7389
2019-04-29T07:09:17.294Z,5.8110
2019-04-29T07:10:21.617Z,6.0513
2019-04-29T07:11:27.349Z,6.1929
2019-04-29T07:12:30.313Z,6.0513
2019-04-29T07:13:33.307Z,5.8537
2019-04-29T07:14:38.607Z,5.8404
2019-04-29T07:15:43.433Z,5.9819
2019-04-29T07:16:50.340Z,5.9686
2019-04-29T07:17:53.320Z,6.0807
2019-04-29T07:18:56.274Z,6.2222
2019-04-29T07:20:02.038Z,6.2783
2019-04-29T07:21:07.437Z,6.3050
2019-04-29T07:22:14.340Z,6.3611
2019-04-29T07:23:17.380Z,6.4332
2019-04-29T07:24:20.563Z,6.3050
2019-04-29T07:25:24.753Z,6.3905
2019-04-29T07:26:31.265Z,6.1795
2019-04-29T07:27:40.438Z,6.1502
2019-04-29T07:28:42.304Z,6.1795
2019-04-29T07:29:45.305Z,6.4038
2019-04-29T07:31:01.224Z,6.3611
2019-04-29T07:31:56.301Z,6.6468
2019-04-29T07:33:00.413Z,6.7590
2019-04-29T07:34:03.298Z,6.4332
2019-04-29T07:35:09.928Z,6.2623
2019-04-29T07:36:14.310Z,6.3478
2019-04-29T07:37:17.352Z,6.3611
2019-04-29T07:38:20.337Z,6.4893
2019-04-29T07:39:22.353Z,6.6175
2019-04-29T07:40:25.323Z,6.6041
2019-04-29T07:41:30.361Z,6.5747
2019-04-29T07:42:33.392Z,6.5320
2019-04-29T07:43:38.465Z,6.4466
2019-04-29T07:44:44.529Z,6.4599
2019-04-29T07:45:47.312Z,6.5587
2019-04-29T07:46:57.046Z,6.4332
2019-04-29T07:48:01.702Z,6.4759
2019-04-29T07:49:06.350Z,6.4893
2019-04-29T07:50:09.382Z,6.5587
2019-04-29T07:51:12.332Z,6.5026
2019-04-29T07:52:16.162Z,6.5320
2019-04-29T07:53:20.885Z,6.5320
2019-04-29T07:54:27.310Z,6.5160
2019-04-29T07:55:30.875Z,6.5320
2019-04-29T07:56:37.910Z,6.5747
2019-04-29T07:57:43.306Z,6.5908
2019-04-29T07:58:48.562Z,6.6468
2019-04-29T07:59:51.325Z,6.6468
2019-04-29T08:00:56.237Z,6.5747
2019-04-29T08:01:59.885Z,6.7163
2019-04-29T08:03:04.345Z,6.6175
2019-04-29T08:04:07.287Z,6.5160
2019-04-29T08:05:10.330Z,6.4466
2019-04-29T08:06:13.291Z,6.5320
2019-04-29T08:07:16.309Z,6.4893
2019-04-29T08:08:21.332Z,6.6602
2019-04-29T08:09:25.328Z,6.7323
2019-04-29T08:10:29.744Z,6.7163
2019-04-29T08:11:33.301Z,6.4599
2019-04-29T08:12:36.313Z,6.4759
2019-04-29T08:13:39.285Z,6.3050
2019-04-29T08:14:42.298Z,6.2062
2019-04-29T08:15:45.310Z,6.2623
2019-04-29T08:16:48.321Z,6.2623
2019-04-29T08:17:55.493Z,6.3478
2019-04-29T08:18:59.296Z,6.4759
2019-04-29T08:20:05.163Z,6.4599
2019-04-29T08:21:10.273Z,6.6175
2019-04-29T08:22:18.364Z,6.5320
2019-04-29T08:23:21.315Z,6.4466
2019-04-29T08:24:23.323Z,6.5454
2019-04-29T08:25:27.181Z,6.5454
2019-04-29T08:26:33.657Z,6.3905
2019-04-29T08:27:40.621Z,6.3210
2019-04-29T08:28:44.344Z,6.4759
2019-04-29T08:29:47.287Z,6.5747
2019-04-29T08:30:50.316Z,6.7723
2019-04-29T08:31:57.365Z,6.7723
2019-04-29T08:33:01.349Z,6.8578
2019-04-29T08:34:04.323Z,6.7163
2019-04-29T08:35:07.309Z,6.7029
2019-04-29T08:36:10.308Z,6.7163
2019-04-29T08:37:12.303Z,6.6735
2019-04-29T08:38:15.371Z,6.7884
2019-04-29T08:39:18.299Z,6.9299
2019-04-29T08:40:21.352Z,6.8311
2019-04-29T08:41:28.563Z,6.8311
2019-04-29T08:42:32.311Z,6.8578
2019-04-29T08:43:35.295Z,7.0420
2019-04-29T08:44:38.296Z,7.0554
2019-04-29T08:45:41.331Z,7.1115
2019-04-29T08:46:51.375Z,7.2396
2019-04-29T08:47:52.350Z,7.5521
2019-04-29T08:48:55.337Z,7.8885
2019-04-29T08:49:58.342Z,7.6349
2019-04-29T08:51:01.300Z,7.7497
2019-04-29T08:52:04.323Z,7.9740
2019-04-29T08:53:06.351Z,7.7897
2019-04-29T08:54:09.357Z,8.2597
2019-04-29T08:55:12.341Z,8.5267
2019-04-29T08:56:15.283Z,8.5267
2019-04-29T08:57:18.365Z,8.8365
2019-04-29T08:58:21.315Z,8.9513
2019-04-29T08:59:24.902Z,8.4573
2019-04-29T09:00:29.273Z,8.9059
2019-04-29T09:01:34.095Z,9.1489
2019-04-29T09:02:41.438Z,9.9260
2019-04-29T09:03:47.333Z,10.0248
2019-04-29T09:04:53.819Z,10.0542
2019-04-29T09:06:05.038Z,9.5575
2019-04-29T09:07:12.513Z,9.0795
2019-04-29T09:08:13.669Z,9.7017
2019-04-29T09:09:28.404Z,11.0742
2019-04-29T09:10:25.334Z,11.8673
2019-04-29T09:11:28.358Z,11.9501
2019-04-29T09:12:31.320Z,12.3747
2019-04-29T09:13:36.400Z,12.0489
2019-04-29T09:14:39.280Z,10.5509
2019-04-29T09:15:42.354Z,9.4026
2019-04-29T09:16:45.320Z,9.4881
2019-04-29T09:17:48.356Z,9.4881
2019-04-29T09:18:51.325Z,8.7243
2019-04-29T09:19:54.339Z,10.5348
2019-04-29T09:20:57.301Z,10.4360
2019-04-29T09:22:00.318Z,10.0675
2019-04-29T09:23:03.392Z,9.5869
2019-04-29T09:24:06.319Z,9.4747
2019-04-29T09:25:09.326Z,9.3172
2019-04-29T09:26:12.330Z,9.5014
2019-04-29T09:27:15.315Z,9.4026
2019-04-29T09:28:27.024Z,9.2477
2019-04-29T09:29:26.337Z,8.9059
2019-04-29T09:30:29.286Z,8.8231
2019-04-29T09:31:32.325Z,9.1356
2019-04-29T09:32:38.236Z,8.6389
2019-04-29T09:33:44.274Z,8.6950
2019-04-29T09:34:51.349Z,8.8659
2019-04-29T09:35:54.275Z,8.5695
2019-04-29T09:36:57.339Z,8.6950
2019-04-29T09:38:00.284Z,8.6255
2019-04-29T09:39:03.333Z,8.8231
2019-04-29T09:40:06.298Z,8.1582
2019-04-29T09:41:09.311Z,8.4279
2019-04-29T09:42:13.195Z,8.4573
2019-04-29T09:43:21.368Z,8.6389
2019-04-29T09:44:26.385Z,8.8792
2019-04-29T09:45:29.291Z,8.8926
2019-04-29T09:46:34.465Z,8.6122
2019-04-29T09:47:38.290Z,8.3425
2019-04-29T09:48:40.323Z,8.8098
2019-04-29T09:49:43.315Z,9.0795
2019-04-29T09:50:46.322Z,9.5575
2019-04-29T09:51:49.363Z,10.0408
2019-04-29T09:52:52.336Z,10.6336
2019-04-29T09:53:55.335Z,10.8312
2019-04-29T09:54:59.523Z,11.0021
2019-04-29T09:56:06.299Z,10.9033
2019-04-29T09:57:09.302Z,10.9434
2019-04-29T09:58:12.314Z,10.3799
2019-04-29T09:59:15.310Z,9.9554
2019-04-29T10:00:18.304Z,9.4160
2019-04-29T10:01:21.304Z,9.7311
2019-04-29T10:02:26.357Z,9.4320
2019-04-29T10:03:32.298Z,9.4587
2019-04-29T10:04:35.310Z,9.4320
2019-04-29T10:05:38.314Z,9.4160
2019-04-29T10:06:41.337Z,9.5148
2019-04-29T10:07:46.373Z,9.7444
2019-04-29T10:08:50.369Z,9.4587
2019-04-29T10:09:57.305Z,9.5869
2019-04-29T10:11:00.319Z,9.8138
2019-04-29T10:12:03.312Z,9.9687
2019-04-29T10:13:06.299Z,10.0114
2019-04-29T10:14:09.341Z,10.1236
2019-04-29T10:15:12.296Z,10.1236
2019-04-29T10:16:15.349Z,10.2518
2019-04-29T10:17:18.335Z,9.8138
2019-04-29T10:18:25.159Z,9.2611
2019-04-29T10:19:29.352Z,9.5575
2019-04-29T10:20:32.300Z,9.2210
2019-04-29T10:21:35.365Z,9.4320
2019-04-29T10:22:38.295Z,9.3465
2019-04-29T10:23:41.318Z,9.5441
2019-04-29T10:24:44.297Z,9.7871
2019-04-29T10:25:47.302Z,10.1957
2019-04-29T10:26:50.396Z,10.4654
2019-04-29T10:27:53.298Z,10.4520
2019-04-29T10:28:56.339Z,10.5081
2019-04-29T10:29:59.322Z,10.5642
2019-04-29T10:31:02.357Z,10.7191
2019-04-29T10:32:06.847Z,10.7752
2019-04-29T10:33:12.862Z,10.5642
2019-04-29T10:34:19.309Z,10.2384
2019-04-29T10:35:22.311Z,9.8699
2019-04-29T10:36:26.262Z,10.5348
2019-04-29T10:37:31.460Z,10.4787
2019-04-29T10:38:40.228Z,10.4360
2019-04-29T10:39:43.306Z,9.9554
2019-04-29T10:40:46.390Z,10.2518
2019-04-29T10:41:49.323Z,10.0969
2019-04-29T10:42:52.368Z,9.6002
2019-04-29T10:43:55.599Z,9.8299
2019-04-29T10:44:59.334Z,9.4587
2019-04-29T10:46:02.307Z,9.7871
2019-04-29T10:47:05.326Z,9.7871
2019-04-29T10:48:08.338Z,9.9420
2019-04-29T10:49:11.349Z,9.8432
2019-04-29T10:50:15.552Z,10.3506
2019-04-29T10:51:23.305Z,10.5936
2019-04-29T10:52:28.324Z,10.7324
2019-04-29T10:53:31.340Z,10.3960
2019-04-29T10:54:34.285Z,10.3212
2019-04-29T10:55:37.295Z,10.4654
2019-04-29T10:56:41.074Z,10.9033
2019-04-29T10:57:44.864Z,10.7057
2019-04-29T10:58:52.382Z,10.9728
2019-04-29T10:59:55.298Z,10.8312
2019-04-29T11:00:58.472Z,10.3666
2019-04-29T11:02:05.092Z,10.7485
2019-04-29T11:03:09.305Z,10.9728
2019-04-29T11:04:12.391Z,10.9594
2019-04-29T11:05:15.331Z,10.2518
2019-04-29T11:06:18.314Z,10.7752
2019-04-29T11:07:26.509Z,10.3506
2019-04-29T11:08:29.372Z,10.5642
2019-04-29T11:09:32.301Z,10.1102
2019-04-29T11:10:35.341Z,10.6764
2019-04-29T11:11:38.276Z,11.0742
2019-04-29T11:12:41.320Z,10.3960
2019-04-29T11:13:48.393Z,10.2384
2019-04-29T11:14:52.305Z,10.3078
2019-04-29T11:15:55.326Z,10.3506
2019-04-29T11:16:58.311Z,10.5215
2019-04-29T11:18:03.516Z,10.6336
2019-04-29T11:19:07.333Z,10.6069
2019-04-29T11:20:11.132Z,10.8606
2019-04-29T11:21:18.284Z,11.1170
2019-04-29T11:22:21.344Z,10.9594
2019-04-29T11:23:24.303Z,10.7885
2019-04-29T11:24:27.355Z,11.3413
2019-04-29T11:25:30.327Z,11.6243
2019-04-29T11:26:33.256Z,11.6804
2019-04-29T11:27:36.346Z,11.6670
2019-04-29T11:28:39.298Z,12.0489
2019-04-29T11:29:44.427Z,11.3840
2019-04-29T11:30:49.554Z,11.6670
2019-04-29T11:31:54.149Z,11.6377
2019-04-29T11:33:00.115Z,11.7525
2019-04-29T11:34:05.501Z,12.2332
2019-04-29T11:35:08.363Z,12.3320
2019-04-29T11:36:11.321Z,12.3026
2019-04-29T11:37:17.923Z,12.2465
2019-04-29T11:38:22.316Z,12.1344
2019-04-29T11:39:25.334Z,11.9928
2019-04-29T11:40:42.756Z,10.9033
2019-04-29T11:41:36.320Z,10.3799
2019-04-29T11:42:41.680Z,10.4654
2019-04-29T11:43:46.600Z,10.3799
2019-04-29T11:44:57.149Z,10.3212
2019-04-29T11:46:01.343Z,10.0248
2019-04-29T11:47:04.314Z,9.9260
2019-04-29T11:48:07.308Z,10.3506
2019-04-29T11:49:10.315Z,10.5936
2019-04-29T11:50:14.346Z,10.7485
2019-04-29T11:51:17.353Z,10.7752
2019-04-29T11:52:23.787Z,11.0876
2019-04-29T11:53:28.332Z,11.0155
2019-04-29T11:54:31.319Z,11.2425
2019-04-29T11:55:34.309Z,10.9861
2019-04-29T11:56:39.585Z,10.7485
2019-04-29T11:57:43.349Z,10.7485
2019-04-29T11:58:46.300Z,10.8473
2019-04-29T11:59:49.305Z,10.8740
2019-04-29T12:00:52.331Z,10.6069
2019-04-29T12:01:55.293Z,10.4948
2019-04-29T12:02:58.353Z,10.5509
2019-04-29T12:04:01.383Z,10.7485
2019-04-29T12:05:08.192Z,10.9167
2019-04-29T12:06:16.351Z,10.6336
2019-04-29T12:07:21.202Z,10.8179
2019-04-29T12:08:24.335Z,10.5215
2019-04-29T12:09:30.866Z,10.1663
2019-04-29T12:10:39.258Z,10.2945
2019-04-29T12:11:43.359Z,10.4654
2019-04-29T12:12:47.717Z,10.1236
2019-04-29T12:13:52.313Z,10.2090
2019-04-29T12:14:55.301Z,10.0248
2019-04-29T12:15:59.338Z,9.9260
2019-04-29T12:17:02.393Z,9.9126
2019-04-29T12:18:05.283Z,10.0835
2019-04-29T12:19:08.314Z,10.1663
2019-04-29T12:20:10.352Z,10.2090
2019-04-29T12:21:13.310Z,10.2384
2019-04-29T12:22:28.190Z,10.1797
2019-04-29T12:23:24.331Z,9.8699
2019-04-29T12:24:26.330Z,10.0408
2019-04-29T12:25:29.413Z,10.0675
2019-04-29T12:26:35.012Z,10.0835
2019-04-29T12:27:40.336Z,10.3666
2019-04-29T12:28:44.525Z,10.1663
2019-04-29T12:29:48.737Z,9.9847
2019-04-29T12:30:55.345Z,9.8993
2019-04-29T12:31:58.326Z,9.9687
2019-04-29T12:33:03.115Z,10.0675
2019-04-29T12:34:06.278Z,10.0408
2019-04-29T12:35:09.346Z,10.3799
2019-04-29T12:36:12.291Z,10.2785
2019-04-29T12:37:15.284Z,10.2224
2019-04-29T12:38:18.369Z,10.2090
2019-04-29T12:39:42.264Z,10.2384
2019-04-29T12:40:29.282Z,10.2224
2019-04-29T12:41:32.418Z,10.2090
2019-04-29T12:42:35.719Z,10.2785
2019-04-29T12:43:43.354Z,10.2384
2019-04-29T12:44:46.382Z,10.3372
2019-04-29T12:45:49.334Z,10.4360
2019-04-29T12:46:52.322Z,10.4360
2019-04-29T12:47:55.335Z,10.4520
2019-04-29T12:48:58.339Z,10.3506
2019-04-29T12:50:01.361Z,10.3960
2019-04-29T12:51:04.289Z,10.2518
2019-04-29T12:52:07.302Z,9.9847
2019-04-29T12:53:10.299Z,9.9981
2019-04-29T12:54:13.357Z,10.1957
2019-04-29T12:55:20.417Z,10.1530
2019-04-29T12:56:26.058Z,10.1102
2019-04-29T12:57:29.306Z,10.1236
2019-04-29T12:58:32.311Z,10.1396
2019-04-29T12:59:36.978Z,10.2518
2019-04-29T13:00:47.514Z,10.2224
2019-04-29T13:01:57.668Z,10.2224
2019-04-29T13:03:00.133Z,10.2945
2019-04-29T13:04:04.313Z,10.2384
2019-04-29T13:05:09.462Z,10.3212
2019-04-29T13:06:13.292Z,10.3372
2019-04-29T13:07:16.305Z,10.2651
2019-04-29T13:08:19.357Z,10.1663